Time;durP1;ratioP1;P1;durP2;ratioP2;P2;SDS_P1;SDS_P2;PMS_P1;PMS_P2;Temp;Humidity;BMP_temperature;BMP_pressure;BME280_temperature;BME280_humidity;BME280_pressure;Samples;Min_cycle;Max_cycle;Signal;HPM_P1;HPM_P2
2021/05/24 00:01:26;;;;;;;2.80;2.30;;;22.40;45.90;;;;;;5030421;28;20438;-80
2021/05/24 00:03:51;;;;;;;2.47;2.27;;;22.40;45.80;;;;;;5027527;28;20179;-81
2021/05/24 00:06:17;;;;;;;3.90;2.53;;;22.40;45.80;;;;;;5032827;28;20180;-81
2021/05/24 00:08:43;;;;;;;3.50;2.70;;;22.40;45.80;;;;;;5065299;28;20254;-80
2021/05/24 00:11:08;;;;;;;3.00;2.23;;;22.40;45.70;;;;;;5033674;28;20211;-80
2021/05/24 00:13:43;;;;;;;2.90;2.63;;;22.40;45.70;;;;;;5034100;28;20178;-81
2021/05/24 00:16:09;;;;;;;2.73;2.27;;;22.40;45.60;;;;;;5033473;28;20168;-83
2021/05/24 00:18:36;;;;;;;2.67;2.20;;;22.40;45.60;;;;;;5033904;28;20411;-83
2021/05/24 00:21:03;;;;;;;2.80;2.23;;;22.30;45.40;;;;;;5032110;28;20414;-83
2021/05/24 00:23:30;;;;;;;4.30;2.53;;;22.30;45.40;;;;;;5033724;28;20446;-83
2021/05/24 00:25:56;;;;;;;4.03;2.87;;;22.30;45.30;;;;;;5032989;28;20419;-79
2021/05/24 00:28:22;;;;;;;2.57;2.27;;;22.30;45.30;;;;;;5065800;28;20514;-83
2021/05/24 00:30:51;;;;;;;3.83;2.73;;;22.30;45.40;;;;;;5034363;28;20411;-83
2021/05/24 00:33:18;;;;;;;2.83;2.47;;;22.30;45.20;;;;;;5032210;28;20419;-82
2021/05/24 00:35:45;;;;;;;2.83;2.17;;;22.30;45.40;;;;;;5067423;28;20426;-82
2021/05/24 00:38:13;;;;;;;2.77;2.50;;;22.30;45.30;;;;;;5035866;28;20425;-81
2021/05/24 00:40:39;;;;;;;2.70;2.40;;;22.30;45.20;;;;;;5067845;28;20415;-81
2021/05/24 00:43:06;;;;;;;2.33;1.80;;;22.20;45.10;;;;;;5032641;28;20402;-81
2021/05/24 00:45:33;;;;;;;2.73;2.40;;;22.20;45.00;;;;;;5051119;28;20184;-82
2021/05/24 00:47:59;;;;;;;2.70;2.30;;;22.20;45.00;;;;;;5033890;28;20441;-82
2021/05/24 00:50:24;;;;;;;4.70;2.70;;;22.50;45.40;;;;;;5034855;28;20474;-82
2021/05/24 00:52:50;;;;;;;2.90;1.90;;;22.20;45.10;;;;;;5033635;28;20665;-84
2021/05/24 00:55:17;;;;;;;4.90;2.60;;;22.20;45.00;;;;;;5032719;28;20172;-83
2021/05/24 00:57:44;;;;;;;3.50;1.90;;;22.20;44.90;;;;;;5032642;28;20516;-83
2021/05/24 01:00:21;;;;;;;2.50;2.00;;;22.20;44.90;;;;;;5034256;28;20407;-83
2021/05/24 01:02:48;;;;;;;3.50;2.10;;;22.20;44.90;;;;;;5066012;28;20418;-80
2021/05/24 01:05:14;;;;;;;2.77;2.27;;;22.10;45.00;;;;;;5032570;28;20445;-82
2021/05/24 01:07:40;;;;;;;3.10;2.20;;;22.20;45.00;;;;;;5066395;28;20415;-80
2021/05/24 01:10:06;;;;;;;2.60;2.37;;;22.10;44.90;;;;;;5032338;28;20558;-80
2021/05/24 01:12:32;;;;;;;3.20;2.00;;;22.20;44.90;;;;;;5031767;28;20196;-79
2021/05/24 01:14:58;;;;;;;2.97;2.47;;;22.20;45.00;;;;;;5066291;28;20638;-81
2021/05/24 01:17:23;;;;;;;2.60;2.30;;;22.10;44.80;;;;;;5033986;28;20173;-82
2021/05/24 01:19:49;;;;;;;3.33;2.30;;;22.10;44.80;;;;;;5034560;28;20175;-82
2021/05/24 01:22:19;;;;;;;3.70;2.50;;;22.10;44.70;;;;;;5031914;28;20263;-81
2021/05/24 01:24:47;;;;;;;5.17;2.57;;;22.10;44.70;;;;;;5030891;28;20649;-81
2021/05/24 01:27:14;;;;;;;2.90;2.60;;;22.10;44.60;;;;;;5032473;28;20416;-81
2021/05/24 01:29:40;;;;;;;2.50;1.87;;;22.10;44.60;;;;;;5032144;28;20454;-81
2021/05/24 01:32:07;;;;;;;3.13;2.30;;;22.10;44.70;;;;;;5031309;28;20415;-81
2021/05/24 01:34:34;;;;;;;2.40;2.20;;;22.10;44.90;;;;;;5032220;28;20478;-81
2021/05/24 01:37:01;;;;;;;2.80;2.10;;;22.10;44.80;;;;;;5032174;28;20407;-80
2021/05/24 01:39:27;;;;;;;2.80;2.10;;;22.10;44.80;;;;;;5064158;28;20423;-83
2021/05/24 01:41:53;;;;;;;2.80;2.40;;;22.30;45.20;;;;;;5063953;28;20423;-81
2021/05/24 01:44:29;;;;;;;2.90;2.20;;;22.10;44.90;;;;;;5033388;28;20419;-81
2021/05/24 01:46:55;;;;;;;2.30;1.80;;;22.10;44.70;;;;;;5065883;28;20186;-81
2021/05/24 01:49:21;;;;;;;2.50;2.27;;;22.10;44.80;;;;;;5065392;28;20494;-81
2021/05/24 01:51:47;;;;;;;2.93;2.00;;;22.10;44.90;;;;;;5031922;28;20657;-82
2021/05/24 01:54:13;;;;;;;2.70;2.17;;;22.10;44.80;;;;;;5030815;28;20291;-83
2021/05/24 01:56:41;;;;;;;2.53;2.07;;;22.10;44.70;;;;;;5031315;28;20219;-82
2021/05/24 01:59:07;;;;;;;2.73;2.07;;;22.10;44.70;;;;;;5032708;28;20971;-82
2021/05/24 02:01:33;;;;;;;3.67;2.40;;;22.10;44.70;;;;;;5031082;28;20483;-80
2021/05/24 02:03:59;;;;;;;2.47;2.20;;;22.00;44.60;;;;;;5064226;28;20430;-82
2021/05/24 02:06:26;;;;;;;2.30;2.10;;;22.00;44.80;;;;;;5062668;28;20187;-83
2021/05/24 02:08:52;;;;;;;2.30;1.90;;;22.00;44.60;;;;;;5061905;28;20455;-83
2021/05/24 02:11:18;;;;;;;2.90;2.60;;;22.00;44.70;;;;;;5029148;28;20409;-83
2021/05/24 02:13:46;;;;;;;2.80;1.97;;;22.00;44.50;;;;;;5032595;28;20175;-82
2021/05/24 02:16:13;;;;;;;6.10;2.40;;;21.90;44.40;;;;;;5032049;28;20236;-82
2021/05/24 02:18:39;;;;;;;2.80;2.30;;;22.00;44.60;;;;;;5029896;28;20423;-83
2021/05/24 02:21:06;;;;;;;2.37;1.97;;;22.00;44.60;;;;;;5031034;28;20511;-80
2021/05/24 02:23:32;;;;;;;4.10;2.23;;;22.00;44.50;;;;;;5064261;28;20196;-82
2021/05/24 02:26:01;;;;;;;4.63;2.00;;;22.00;44.40;;;;;;5031458;28;20419;-82
2021/05/24 02:28:27;;;;;;;3.63;2.43;;;22.00;44.40;;;;;;5030140;28;20420;-82
2021/05/24 02:30:53;;;;;;;2.70;2.50;;;22.00;44.50;;;;;;5031349;28;20486;-82
2021/05/24 02:33:20;;;;;;;2.40;2.03;;;22.00;44.60;;;;;;5029794;28;20183;-83
2021/05/24 02:35:47;;;;;;;2.57;2.37;;;22.00;44.50;;;;;;5031179;28;20491;-83
2021/05/24 02:38:12;;;;;;;3.27;2.60;;;22.00;44.40;;;;;;5030318;28;20415;-83
2021/05/24 02:40:38;;;;;;;3.83;2.70;;;21.90;44.40;;;;;;5031277;28;20483;-83
2021/05/24 02:43:04;;;;;;;3.63;2.13;;;21.90;44.60;;;;;;5029897;28;20247;-82
2021/05/24 02:45:31;;;;;;;4.47;2.67;;;21.90;44.40;;;;;;5029746;28;20423;-80
2021/05/24 02:47:59;;;;;;;2.83;2.30;;;21.90;44.40;;;;;;5028810;28;20477;-80
2021/05/24 02:50:26;;;;;;;2.40;2.20;;;21.90;44.30;;;;;;5061756;28;20490;-80
2021/05/24 02:52:54;;;;;;;2.70;2.40;;;22.00;44.30;;;;;;5029547;28;20435;-80
2021/05/24 02:55:20;;;;;;;2.57;2.30;;;21.80;44.20;;;;;;5028306;28;20470;-80
2021/05/24 02:57:46;;;;;;;2.70;2.40;;;21.90;44.20;;;;;;5027758;28;20458;-80
2021/05/24 03:00:13;;;;;;;3.67;2.00;;;21.90;44.30;;;;;;5028012;28;20769;-80
2021/05/24 03:02:46;;;;;;;2.50;2.23;;;21.90;44.20;;;;;;5061868;28;20207;-80
2021/05/24 03:05:17;;;;;;;3.40;2.80;;;21.90;44.20;;;;;;5029233;28;20404;-80
2021/05/24 03:07:43;;;;;;;5.40;2.63;;;21.90;44.10;;;;;;5029984;28;20483;-80
2021/05/24 03:10:09;;;;;;;4.00;2.60;;;21.90;44.20;;;;;;5030009;28;20459;-81
2021/05/24 03:12:35;;;;;;;5.93;2.07;;;21.90;44.10;;;;;;5029374;28;20411;-81
2021/05/24 03:15:00;;;;;;;2.33;1.90;;;21.90;44.10;;;;;;5027676;28;20491;-82
2021/05/24 03:17:26;;;;;;;3.10;2.03;;;21.90;44.20;;;;;;5028196;28;20576;-81
2021/05/24 03:19:52;;;;;;;2.50;2.27;;;21.90;44.20;;;;;;5027556;28;20230;-81
2021/05/24 03:22:17;;;;;;;2.40;2.10;;;21.90;44.30;;;;;;5028974;28;20184;-83
2021/05/24 03:24:43;;;;;;;3.40;2.40;;;21.90;44.30;;;;;;5029050;28;20236;-82
2021/05/24 03:27:09;;;;;;;3.37;2.57;;;21.90;44.40;;;;;;5030867;28;20160;-82
2021/05/24 03:29:35;;;;;;;2.33;1.87;;;22.00;44.50;;;;;;5061913;28;20223;-82
2021/05/24 03:32:00;;;;;;;2.23;2.03;;;21.90;44.40;;;;;;5029823;28;20168;-80
2021/05/24 03:34:26;;;;;;;2.40;2.20;;;22.00;44.50;;;;;;5029956;28;20203;-83
2021/05/24 03:36:52;;;;;;;2.00;1.70;;;22.00;44.60;;;;;;5030509;28;20211;-83
2021/05/24 03:39:19;;;;;;;3.97;2.27;;;22.00;44.60;;;;;;5029361;28;20203;-82
2021/05/24 03:41:45;;;;;;;2.30;1.90;;;22.00;44.60;;;;;;5029024;28;20314;-81
2021/05/24 03:44:10;;;;;;;2.90;2.60;;;22.00;44.70;;;;;;5029950;28;20539;-81
2021/05/24 03:46:36;;;;;;;2.50;1.63;;;22.00;44.70;;;;;;5030774;28;20277;-81
2021/05/24 03:49:03;;;;;;;2.20;2.00;;;22.00;44.80;;;;;;5030422;28;20215;-82
2021/05/24 03:51:31;;;;;;;2.60;2.07;;;22.10;44.80;;;;;;5026805;28;20446;-82
2021/05/24 03:53:57;;;;;;;1.87;1.70;;;22.10;44.90;;;;;;5026274;28;20896;-82
2021/05/24 03:56:26;;;;;;;2.20;1.90;;;22.10;45.00;;;;;;5027412;28;20429;-81
2021/05/24 03:58:52;;;;;;;3.30;3.00;;;22.10;45.00;;;;;;5027909;28;20419;-83
2021/05/24 04:01:18;;;;;;;2.30;2.10;;;22.00;44.90;;;;;;5030255;28;20419;-81
2021/05/24 04:03:44;;;;;;;2.10;1.67;;;22.10;45.10;;;;;;5030353;28;20176;-81
2021/05/24 04:06:12;;;;;;;2.30;1.90;;;22.10;45.10;;;;;;5061959;28;20180;-82
2021/05/24 04:08:41;;;;;;;3.83;2.20;;;22.10;45.20;;;;;;5030382;28;20419;-81
2021/05/24 04:11:06;;;;;;;2.23;1.80;;;22.10;45.20;;;;;;5029286;28;20422;-82
2021/05/24 04:13:32;;;;;;;2.10;1.80;;;22.10;45.30;;;;;;5028842;28;20418;-82
2021/05/24 04:15:58;;;;;;;1.50;1.40;;;22.10;45.30;;;;;;5030239;28;20227;-83
2021/05/24 04:18:33;;;;;;;2.47;1.50;;;22.10;45.30;;;;;;5030189;28;20172;-83
2021/05/24 04:20:59;;;;;;;2.90;2.07;;;22.10;45.40;;;;;;5028052;28;20425;-81
2021/05/24 04:23:25;;;;;;;1.70;1.57;;;22.10;45.40;;;;;;5029040;28;20415;-81
2021/05/24 04:25:54;;;;;;;3.50;2.30;;;22.10;45.40;;;;;;5029802;28;20419;-82
2021/05/24 04:28:20;;;;;;;2.23;1.90;;;22.10;45.50;;;;;;5062631;28;20250;-82
2021/05/24 04:30:46;;;;;;;2.33;1.80;;;22.20;45.60;;;;;;5029461;28;21010;-82
2021/05/24 04:33:12;;;;;;;1.60;1.50;;;22.20;45.60;;;;;;5028218;28;20176;-81
2021/05/24 04:35:38;;;;;;;3.90;2.50;;;22.10;45.50;;;;;;5027843;28;20475;-81
2021/05/24 04:38:04;;;;;;;2.47;2.07;;;22.20;45.60;;;;;;5028449;28;20418;-84
2021/05/24 04:40:30;;;;;;;2.53;2.00;;;22.10;45.60;;;;;;5060661;28;20181;-82
2021/05/24 04:42:56;;;;;;;1.90;1.60;;;22.20;45.70;;;;;;5028110;28;20450;-82
2021/05/24 04:45:22;;;;;;;2.20;2.00;;;22.20;45.70;;;;;;5061197;28;20427;-82
2021/05/24 04:47:48;;;;;;;5.83;1.93;;;22.20;45.70;;;;;;5027883;28;20431;-82
2021/05/24 04:50:14;;;;;;;1.80;1.60;;;22.20;45.70;;;;;;5028339;28;20478;-81
2021/05/24 04:52:40;;;;;;;1.80;1.70;;;22.20;45.80;;;;;;5030810;28;20172;-82
2021/05/24 04:55:07;;;;;;;1.73;1.63;;;22.20;45.80;;;;;;5032814;28;20180;-82
2021/05/24 04:57:32;;;;;;;1.50;1.40;;;22.20;45.80;;;;;;5032776;28;20184;-83
2021/05/24 04:59:59;;;;;;;2.33;1.63;;;22.20;45.90;;;;;;5032706;28;20418;-83
2021/05/24 05:02:24;;;;;;;1.67;1.43;;;22.20;45.90;;;;;;5032891;28;20411;-83
2021/05/24 05:04:50;;;;;;;2.00;1.80;;;22.20;46.00;;;;;;5032553;28;20176;-83
2021/05/24 05:07:16;;;;;;;1.50;1.40;;;22.30;46.10;;;;;;5032807;28;20173;-83
2021/05/24 05:09:51;;;;;;;1.77;1.67;;;22.20;46.10;;;;;;5032852;28;20219;-82
2021/05/24 05:12:17;;;;;;;1.60;1.50;;;22.30;46.20;;;;;;5033018;28;20168;-82
2021/05/24 05:14:45;;;;;;;1.93;1.73;;;22.30;46.20;;;;;;5064811;28;20434;-83
2021/05/24 05:17:11;;;;;;;1.50;1.27;;;22.30;46.20;;;;;;5033137;28;20169;-83
2021/05/24 05:19:37;;;;;;;2.27;1.77;;;22.30;46.20;;;;;;5031754;28;20442;-83
2021/05/24 05:22:06;;;;;;;2.10;1.70;;;22.30;46.30;;;;;;5031986;28;20207;-83
2021/05/24 05:24:31;;;;;;;1.87;1.60;;;22.30;46.20;;;;;;5032567;28;20203;-83
2021/05/24 05:26:57;;;;;;;3.10;1.80;;;22.40;46.40;;;;;;5032503;28;20415;-84
2021/05/24 05:29:23;;;;;;;2.00;1.83;;;22.30;46.30;;;;;;5033136;28;20728;-82
2021/05/24 05:31:49;;;;;;;2.40;1.53;;;22.40;46.30;;;;;;5064129;28;20177;-83
2021/05/24 05:34:16;;;;;;;1.73;1.60;;;22.40;46.30;;;;;;5032274;28;20259;-83
2021/05/24 05:36:42;;;;;;;2.90;1.60;;;22.40;46.30;;;;;;5032526;28;20169;-83
2021/05/24 05:39:08;;;;;;;1.80;1.47;;;22.40;46.30;;;;;;5033381;28;20446;-82
2021/05/24 05:41:35;;;;;;;1.70;1.60;;;22.40;46.20;;;;;;5049465;28;20394;-83
2021/05/24 05:44:02;;;;;;;1.53;1.30;;;22.40;46.80;;;;;;5033269;28;20415;-82
2021/05/24 05:46:28;;;;;;;1.90;1.50;;;22.40;46.30;;;;;;5032093;28;20434;-82
2021/05/24 05:48:56;;;;;;;2.10;1.77;;;22.40;46.30;;;;;;5031049;28;20463;-82
2021/05/24 05:51:21;;;;;;;1.57;1.47;;;22.40;46.40;;;;;;5033113;28;20815;-83
2021/05/24 05:53:47;;;;;;;1.77;1.33;;;22.50;46.50;;;;;;5032962;28;20446;-82
2021/05/24 05:56:13;;;;;;;3.30;1.60;;;22.50;47.00;;;;;;5030496;28;20191;-82
2021/05/24 05:58:39;;;;;;;2.30;1.63;;;22.50;47.10;;;;;;5065373;28;20187;-82
2021/05/24 06:01:06;;;;;;;2.27;1.40;;;22.50;46.50;;;;;;5033207;28;20179;-82
2021/05/24 06:03:33;;;;;;;3.17;1.37;;;22.40;46.40;;;;;;5063842;28;20423;-83
2021/05/24 06:06:00;;;;;;;2.00;1.80;;;22.40;46.40;;;;;;5030596;28;20507;-83
2021/05/24 06:08:26;;;;;;;1.80;1.40;;;22.40;46.40;;;;;;5033107;28;20856;-83
2021/05/24 06:10:52;;;;;;;1.80;1.60;;;22.50;46.60;;;;;;5065383;28;20467;-83
2021/05/24 06:13:21;;;;;;;2.90;1.87;;;22.50;46.50;;;;;;5032700;28;20411;-83
2021/05/24 06:15:47;;;;;;;2.40;1.70;;;22.40;46.50;;;;;;5031089;28;20168;-82
2021/05/24 06:18:13;;;;;;;2.50;1.60;;;22.50;46.60;;;;;;5031708;28;20453;-83
2021/05/24 06:20:39;;;;;;;1.67;1.57;;;22.50;46.50;;;;;;5032987;28;20419;-83
2021/05/24 06:23:04;;;;;;;1.83;1.53;;;22.50;46.60;;;;;;5031978;28;20199;-83
2021/05/24 06:25:31;;;;;;;3.07;1.90;;;22.50;46.60;;;;;;5031104;28;20268;-82
2021/05/24 06:28:00;;;;;;;1.77;1.40;;;22.50;46.60;;;;;;5032532;28;20175;-82
2021/05/24 06:30:25;;;;;;;2.27;1.27;;;22.50;46.60;;;;;;5031801;28;20458;-82
2021/05/24 06:32:51;;;;;;;1.83;1.47;;;22.50;46.60;;;;;;5030727;28;20481;-83
2021/05/24 06:35:19;;;;;;;2.37;1.77;;;22.50;46.60;;;;;;5031439;28;20196;-83
2021/05/24 06:37:45;;;;;;;1.70;1.30;;;22.50;46.60;;;;;;5030593;28;20180;-83
2021/05/24 06:40:12;;;;;;;1.53;1.40;;;22.50;46.60;;;;;;5030930;28;20419;-83
2021/05/24 06:42:39;;;;;;;1.57;1.47;;;22.50;46.60;;;;;;5064422;28;20210;-82
2021/05/24 06:45:05;;;;;;;2.17;1.60;;;22.50;46.60;;;;;;5032044;28;20502;-83
2021/05/24 06:47:42;;;;;;;1.53;1.30;;;22.60;46.70;;;;;;5032682;28;20422;-83
2021/05/24 06:50:08;;;;;;;1.67;1.53;;;22.60;46.70;;;;;;5061630;28;20954;-80
2021/05/24 06:52:34;;;;;;;3.10;1.80;;;22.60;46.70;;;;;;5031638;28;20422;-82
2021/05/24 06:55:01;;;;;;;1.63;1.50;;;22.60;46.70;;;;;;5029666;28;20415;-82
2021/05/24 06:57:27;;;;;;;1.83;1.27;;;22.60;46.70;;;;;;5030884;28;20434;-81
2021/05/24 06:59:58;;;;;;;1.50;1.23;;;22.60;46.70;;;;;;5029304;28;20450;-83
2021/05/24 07:02:24;;;;;;;1.67;1.37;;;22.60;46.70;;;;;;5063532;28;20215;-81
2021/05/24 07:04:50;;;;;;;1.50;1.40;;;22.60;46.70;;;;;;5029619;28;20434;-82
2021/05/24 07:07:15;;;;;;;1.87;1.20;;;22.60;46.70;;;;;;5030949;28;20422;-81
2021/05/24 07:09:41;;;;;;;1.63;1.53;;;22.60;46.70;;;;;;5029296;28;20204;-81
2021/05/24 07:12:10;;;;;;;2.30;1.40;;;22.60;46.70;;;;;;5062783;28;20181;-81
2021/05/24 07:14:37;;;;;;;1.40;1.30;;;22.60;46.70;;;;;;5029794;28;20204;-81
2021/05/24 07:17:03;;;;;;;1.30;1.20;;;22.60;46.70;;;;;;5030140;28;20426;-81
2021/05/24 07:19:28;;;;;;;1.90;1.60;;;22.60;46.80;;;;;;5062615;28;20439;-80
2021/05/24 07:21:56;;;;;;;2.30;1.70;;;22.60;46.80;;;;;;5030102;28;20478;-81
2021/05/24 07:24:22;;;;;;;1.60;1.27;;;22.60;46.70;;;;;;5031362;28;20232;-81
2021/05/24 07:26:49;;;;;;;2.73;2.27;;;22.70;46.80;;;;;;5030057;28;20455;-81
2021/05/24 07:29:16;;;;;;;1.50;1.37;;;22.60;46.70;;;;;;5062609;28;20463;-81
2021/05/24 07:31:42;;;;;;;1.67;1.30;;;22.60;46.70;;;;;;5030132;28;20431;-81
2021/05/24 07:34:08;;;;;;;1.70;1.30;;;22.60;46.80;;;;;;5031094;28;20411;-81
2021/05/24 07:36:34;;;;;;;1.73;1.30;;;22.70;46.90;;;;;;5031106;28;20168;-81
2021/05/24 07:39:00;;;;;;;2.37;1.87;;;22.70;46.80;;;;;;5029797;28;20793;-81
2021/05/24 07:41:26;;;;;;;2.50;1.50;;;22.70;46.90;;;;;;5030756;28;20907;-81
2021/05/24 07:43:52;;;;;;;2.83;1.40;;;22.70;46.90;;;;;;5028979;28;20196;-79
2021/05/24 07:46:18;;;;;;;2.40;1.37;;;22.70;47.40;;;;;;5047127;28;20521;-80
2021/05/24 07:48:47;;;;;;;1.40;1.30;;;22.70;46.80;;;;;;5063371;28;20454;-82
2021/05/24 07:51:13;;;;;;;2.27;1.43;;;22.70;46.80;;;;;;5030101;28;20173;-80
2021/05/24 07:53:40;;;;;;;2.30;1.40;;;22.70;46.80;;;;;;5029953;28;20430;-80
2021/05/24 07:56:06;;;;;;;4.10;1.60;;;22.70;46.80;;;;;;5030411;28;20507;-79
2021/05/24 07:58:32;;;;;;;2.40;2.00;;;22.70;46.90;;;;;;5030250;28;20392;-81
2021/05/24 08:00:58;;;;;;;1.60;1.50;;;22.70;46.90;;;;;;5029441;28;20638;-81
2021/05/24 08:03:24;;;;;;;2.10;1.23;;;22.70;46.90;;;;;;5062470;28;20423;-80
2021/05/24 08:05:50;;;;;;;2.50;1.57;;;22.80;47.00;;;;;;5029820;28;20439;-80
2021/05/24 08:08:16;;;;;;;2.10;1.20;;;22.70;46.90;;;;;;5027067;28;20178;-79
2021/05/24 08:10:41;;;;;;;2.27;1.70;;;22.70;46.90;;;;;;5028948;28;20195;-81
2021/05/24 08:13:07;;;;;;;1.90;1.70;;;22.80;47.00;;;;;;5061161;28;20634;-85
2021/05/24 08:15:33;;;;;;;2.07;1.60;;;22.80;46.90;;;;;;5061658;28;20176;-83
2021/05/24 08:18:02;;;;;;;3.03;1.40;;;22.80;46.90;;;;;;5029779;28;20176;-81
2021/05/24 08:20:28;;;;;;;2.77;1.33;;;22.80;46.90;;;;;;5029763;28;20863;-81
2021/05/24 08:22:54;;;;;;;1.57;1.40;;;22.80;46.90;;;;;;5045211;28;20429;-80
2021/05/24 08:25:49;;;;;;;3.53;1.30;;;22.80;46.90;;;;;;5029378;28;20450;-80
2021/05/24 08:28:27;;;;;;;1.93;1.43;;;22.80;46.90;;;;;;5032095;28;20188;-81
2021/05/24 08:30:55;;;;;;;1.87;1.63;;;22.80;47.00;;;;;;5032384;28;20522;-81
2021/05/24 08:33:22;;;;;;;3.20;1.70;;;22.80;47.00;;;;;;5032758;28;20483;-82
2021/05/24 08:35:52;;;;;;;4.47;1.70;;;22.80;47.00;;;;;;5031205;28;20423;-82
2021/05/24 08:38:19;;;;;;;4.93;2.07;;;22.80;47.00;;;;;;5048112;28;20423;-81
2021/05/24 08:40:46;;;;;;;3.47;1.93;;;22.80;47.00;;;;;;5031998;28;20419;-82
2021/05/24 08:43:14;;;;;;;3.33;1.90;;;22.80;47.00;;;;;;5030858;28;20889;-83
2021/05/24 08:45:40;;;;;;;2.70;2.10;;;22.80;47.00;;;;;;5032875;28;20411;-82
2021/05/24 08:48:07;;;;;;;4.10;2.10;;;22.80;47.00;;;;;;5031208;28;20429;-82
2021/05/24 08:50:35;;;;;;;6.90;2.17;;;22.80;47.00;;;;;;5034797;28;21039;-80
2021/05/24 08:53:03;;;;;;;4.43;2.00;;;22.80;47.00;;;;;;5035806;28;20459;-81
2021/05/24 08:55:29;;;;;;;4.23;2.00;;;22.80;47.00;;;;;;5035504;28;20396;-81
2021/05/24 08:57:56;;;;;;;6.13;2.17;;;22.80;47.00;;;;;;5034038;28;20435;-81
2021/05/24 09:00:22;;;;;;;7.27;2.57;;;22.80;47.00;;;;;;5035037;28;20180;-80
2021/05/24 09:02:53;;;;;;;3.93;2.10;;;22.80;47.00;;;;;;5034840;28;20419;-81
2021/05/24 09:05:20;;;;;;;5.70;2.73;;;22.80;47.00;;;;;;5034254;28;20499;-81
2021/05/24 09:08:12;;;;;;;4.27;2.43;;;22.80;47.00;;;;;;5032354;28;20435;-81
2021/05/24 09:10:47;;;;;;;7.77;2.50;;;22.80;47.00;;;;;;5053474;28;20481;-82
2021/05/24 09:13:20;;;;;;;5.60;2.57;;;22.80;47.10;;;;;;5037080;28;21069;-83
2021/05/24 09:15:54;;;;;;;5.07;2.50;;;22.80;47.00;;;;;;5037949;28;20402;-82
2021/05/24 09:18:20;;;;;;;4.47;2.30;;;22.80;47.10;;;;;;5050488;28;20402;-83
2021/05/24 09:20:50;;;;;;;8.20;2.20;;;22.80;47.10;;;;;;5046925;28;20418;-83
2021/05/24 09:23:29;;;;;;;3.20;2.17;;;22.90;47.70;;;;;;5030465;28;20486;-84
2021/05/24 09:26:05;;;;;;;5.30;2.10;;;22.90;47.10;;;;;;5031919;28;20543;-84
2021/05/24 09:28:40;;;;;;;6.67;2.70;;;22.90;47.10;;;;;;5048000;28;20410;-84
2021/05/24 09:31:18;;;;;;;5.93;2.40;;;22.90;47.10;;;;;;5030340;28;20433;-84
2021/05/24 09:33:46;;;;;;;5.53;2.47;;;22.90;47.10;;;;;;5030922;28;20425;-84
2021/05/24 09:36:13;;;;;;;5.07;2.23;;;22.90;47.10;;;;;;5047744;28;20506;-84
2021/05/24 09:38:40;;;;;;;4.77;3.30;;;22.90;47.10;;;;;;5047776;28;20407;-84
2021/05/24 09:41:07;;;;;;;3.83;2.03;;;22.90;47.10;;;;;;5031523;28;20489;-84
2021/05/24 09:43:38;;;;;;;4.90;1.90;;;22.90;47.10;;;;;;5031506;28;20426;-84
2021/05/24 09:46:22;;;;;;;6.07;2.80;;;22.90;47.10;;;;;;5048039;28;20421;-84
2021/05/24 09:48:50;;;;;;;4.20;2.63;;;22.90;47.10;;;;;;5029067;28;20418;-84
2021/05/24 09:51:19;;;;;;;6.30;2.60;;;22.90;47.10;;;;;;5030316;28;20434;-84
2021/05/24 09:54:10;;;;;;;3.87;2.67;;;22.90;47.10;;;;;;5029279;28;20481;-84
2021/05/24 09:56:43;;;;;;;3.70;2.40;;;22.90;47.10;;;;;;5028375;28;20446;-85
2021/05/24 09:59:21;;;;;;;4.93;2.13;;;22.90;47.20;;;;;;5061230;28;20419;-85
2021/05/24 10:01:52;;;;;;;10.90;2.50;;;22.90;47.20;;;;;;5027916;28;20422;-84
2021/05/24 10:04:21;;;;;;;6.03;3.37;;;22.80;47.10;;;;;;5061224;28;20415;-84
2021/05/24 10:06:47;;;;;;;6.40;2.27;;;22.90;47.20;;;;;;5028999;28;20408;-85
2021/05/24 10:09:16;;;;;;;4.63;2.97;;;22.90;47.20;;;;;;5026670;28;20459;-88
2021/05/24 10:11:44;;;;;;;5.70;2.40;;;22.90;47.20;;;;;;5025671;28;20473;-88
2021/05/24 10:14:17;;;;;;;4.67;2.60;;;22.90;47.20;;;;;;5028977;28;20415;-82
2021/05/24 10:16:49;;;;;;;4.30;2.67;;;22.90;47.20;;;;;;5029968;28;20415;-87
2021/05/24 10:19:19;;;;;;;6.10;2.90;;;22.90;47.30;;;;;;5029445;28;20412;-83
2021/05/24 10:21:47;;;;;;;10.33;2.47;;;22.90;47.20;;;;;;5030722;28;20402;-84
2021/05/24 10:24:14;;;;;;;5.10;2.37;;;22.90;47.20;;;;;;5029753;28;20421;-84
2021/05/24 10:26:42;;;;;;;4.70;2.33;;;22.90;47.20;;;;;;5045511;28;20458;-84
2021/05/24 10:29:09;;;;;;;5.00;2.33;;;22.90;47.20;;;;;;5029576;28;20794;-85
2021/05/24 10:31:35;;;;;;;5.90;1.97;;;22.90;47.20;;;;;;5029572;28;20897;-84
2021/05/24 10:34:17;;;;;;;4.40;2.13;;;22.90;47.20;;;;;;5029294;28;20502;-84
2021/05/24 10:37:12;;;;;;;5.07;2.40;;;22.90;47.20;;;;;;5029568;28;20411;-84
2021/05/24 10:40:04;;;;;;;3.27;2.20;;;22.90;47.20;;;;;;5030482;28;20451;-84
2021/05/24 10:42:39;;;;;;;6.07;2.10;;;22.90;47.30;;;;;;5029566;28;20391;-85
2021/05/24 10:45:22;;;;;;;5.53;2.73;;;22.80;47.20;;;;;;5028102;28;20411;-85
2021/05/24 10:47:59;;;;;;;4.73;2.10;;;22.80;47.20;;;;;;5026655;28;20422;-85
2021/05/24 10:50:26;;;;;;;5.17;2.33;;;22.80;47.20;;;;;;5026459;28;20461;-85
2021/05/24 10:52:57;;;;;;;5.50;2.47;;;22.80;47.20;;;;;;5026915;28;20403;-85
2021/05/24 10:55:27;;;;;;;5.33;2.83;;;22.80;47.30;;;;;;5026093;28;20486;-84
2021/05/24 10:58:13;;;;;;;6.80;3.00;;;22.80;47.30;;;;;;5028083;28;20522;-85
2021/05/24 11:00:59;;;;;;;5.37;2.40;;;22.80;47.30;;;;;;5029791;28;20415;-84
2021/05/24 11:03:26;;;;;;;7.17;3.23;;;22.90;47.50;;;;;;5028701;28;20442;-83
2021/05/24 11:06:07;;;;;;;3.70;2.37;;;22.80;47.50;;;;;;5028593;28;20760;-84
2021/05/24 11:08:35;;;;;;;5.90;2.90;;;22.80;47.40;;;;;;5060040;28;20426;-86
2021/05/24 11:11:22;;;;;;;5.63;2.90;;;22.80;47.40;;;;;;5026448;28;20462;-86
2021/05/24 11:14:06;;;;;;;5.97;2.60;;;22.80;47.40;;;;;;5027636;28;20403;-84
2021/05/24 11:16:33;;;;;;;5.63;2.77;;;22.90;47.40;;;;;;5026657;28;20418;-84
2021/05/24 11:19:14;;;;;;;8.67;2.60;;;22.80;47.40;;;;;;5025846;28;20462;-87
2021/05/24 11:21:56;;;;;;;4.40;2.37;;;22.80;47.30;;;;;;5025932;28;20391;-86
2021/05/24 11:27:16;;;;;;;3.87;2.17;;;22.80;47.40;;;;;;5026261;28;20427;-85
2021/05/24 11:29:47;;;;;;;8.00;3.63;;;22.80;47.40;;;;;;5037207;28;20467;-85
2021/05/24 11:32:27;;;;;;;5.93;2.70;;;22.80;47.40;;;;;;5028286;28;20585;-83
2021/05/24 11:34:54;;;;;;;4.87;3.07;;;22.80;47.40;;;;;;5027387;28;20411;-84
2021/05/24 11:37:48;;;;;;;4.43;2.60;;;22.80;47.40;;;;;;5042042;28;20439;-85
2021/05/24 11:40:18;;;;;;;3.60;2.10;;;22.80;47.40;;;;;;5026958;28;20418;-83
2021/05/24 11:42:45;;;;;;;6.33;3.10;;;22.80;47.40;;;;;;5029132;28;20502;-85
2021/05/24 11:45:23;;;;;;;4.90;2.40;;;22.80;47.50;;;;;;5025055;28;20422;-86
2021/05/24 11:48:00;;;;;;;6.83;3.30;;;22.80;47.40;;;;;;5024541;28;20899;-87
2021/05/24 11:50:27;;;;;;;6.13;2.77;;;22.80;47.50;;;;;;5023293;28;20463;-84
2021/05/24 11:52:53;;;;;;;7.20;2.80;;;22.80;47.50;;;;;;5023446;28;20437;-85
2021/05/24 11:55:19;;;;;;;6.53;2.50;;;22.80;47.50;;;;;;5024535;28;20411;-84
2021/05/24 11:57:47;;;;;;;4.77;2.10;;;22.80;47.50;;;;;;5024805;28;20542;-84
2021/05/24 12:00:24;;;;;;;7.27;2.27;;;22.80;47.50;;;;;;5026680;28;20184;-85
2021/05/24 12:02:50;;;;;;;5.60;2.50;;;22.80;47.50;;;;;;5026101;28;20407;-85
2021/05/24 12:05:21;;;;;;;7.93;2.50;;;22.80;47.60;;;;;;5024467;28;20485;-83
2021/05/24 12:07:48;;;;;;;7.93;3.60;;;22.80;47.50;;;;;;5030004;28;20416;-83
2021/05/24 12:10:14;;;;;;;4.30;2.80;;;22.80;47.60;;;;;;5024832;28;20459;-85
2021/05/24 12:12:40;;;;;;;6.93;2.87;;;22.80;47.60;;;;;;5027720;28;20940;-84
2021/05/24 12:15:16;;;;;;;6.23;3.30;;;22.80;47.60;;;;;;5024479;28;20411;-84
2021/05/24 12:17:52;;;;;;;7.60;3.30;;;22.80;47.60;;;;;;5024844;28;20168;-84
2021/05/24 12:20:20;;;;;;;7.40;2.80;;;22.80;47.60;;;;;;5025062;28;20427;-84
2021/05/24 12:22:46;;;;;;;5.40;2.67;;;22.80;47.60;;;;;;5024525;28;20407;-84
2021/05/24 12:25:17;;;;;;;6.50;2.43;;;22.80;47.60;;;;;;5023817;28;20797;-86
2021/05/24 12:27:43;;;;;;;9.03;3.40;;;22.80;47.60;;;;;;5026599;28;20416;-85
2021/05/24 12:30:35;;;;;;;6.57;2.80;;;22.80;47.60;;;;;;5024955;28;20467;-86
2021/05/24 12:33:12;;;;;;;7.57;2.83;;;22.80;47.70;;;;;;5024671;28;20172;-85
2021/05/24 12:35:41;;;;;;;7.33;2.47;;;22.80;47.70;;;;;;5024104;28;20411;-86
2021/05/24 12:38:26;;;;;;;7.70;3.20;;;22.80;47.70;;;;;;5024182;28;20443;-85
2021/05/24 12:41:00;;;;;;;6.70;3.47;;;22.80;47.70;;;;;;5024786;28;20480;-85
2021/05/24 12:43:26;;;;;;;5.90;3.00;;;22.80;47.80;;;;;;5022944;28;20442;-85
2021/05/24 12:45:53;;;;;;;7.87;3.67;;;22.80;47.80;;;;;;5022823;28;20415;-84
2021/05/24 12:48:29;;;;;;;6.90;3.30;;;22.80;47.80;;;;;;5023752;28;20411;-86
2021/05/24 12:50:55;;;;;;;6.87;3.13;;;22.80;47.80;;;;;;5023719;28;20451;-85
2021/05/24 12:53:22;;;;;;;8.63;3.30;;;22.80;47.80;;;;;;5023348;28;21044;-85
2021/05/24 12:55:51;;;;;;;7.10;2.97;;;22.80;47.80;;;;;;5023796;28;20805;-86
2021/05/24 12:58:20;;;;;;;5.17;2.73;;;22.80;47.80;;;;;;5024325;28;20781;-87